sensor_id;sensor_type;location;lat;lon;timestamp;P1;durP1;ratioP1;P2;durP2;ratioP2
71973;SDS011;59840;52.122;5.404;2023-11-19T00:01:33;8.15;;;2.90;;
71973;SDS011;59840;52.122;5.404;2023-11-19T00:04:00;8.37;;;2.50;;
71973;SDS011;59840;52.122;5.404;2023-11-19T00:06:27;8.50;;;2.70;;
71973;SDS011;59840;52.122;5.404;2023-11-19T00:08:54;12.20;;;2.90;;
71973;SDS011;59840;52.122;5.404;2023-11-19T00:11:20;5.97;;;2.00;;
71973;SDS011;59840;52.122;5.404;2023-11-19T00:13:47;10.15;;;2.47;;
71973;SDS011;59840;52.122;5.404;2023-11-19T00:16:14;7.97;;;2.40;;
71973;SDS011;59840;52.122;5.404;2023-11-19T00:18:42;8.13;;;2.10;;
71973;SDS011;59840;52.122;5.404;2023-11-19T00:21:09;6.50;;;1.98;;
71973;SDS011;59840;52.122;5.404;2023-11-19T00:23:37;12.77;;;2.55;;
71973;SDS011;59840;52.122;5.404;2023-11-19T00:26:04;6.90;;;1.92;;
71973;SDS011;59840;52.122;5.404;2023-11-19T00:28:32;7.90;;;2.10;;
71973;SDS011;59840;52.122;5.404;2023-11-19T00:31:00;8.55;;;2.15;;
71973;SDS011;59840;52.122;5.404;2023-11-19T00:33:26;14.68;;;1.73;;
71973;SDS011;59840;52.122;5.404;2023-11-19T00:35:53;7.45;;;1.70;;
71973;SDS011;59840;52.122;5.404;2023-11-19T00:38:20;5.22;;;1.95;;
71973;SDS011;59840;52.122;5.404;2023-11-19T00:40:47;5.97;;;1.70;;
71973;SDS011;59840;52.122;5.404;2023-11-19T00:43:14;12.48;;;2.22;;
71973;SDS011;59840;52.122;5.404;2023-11-19T00:45:40;10.98;;;1.58;;
71973;SDS011;59840;52.122;5.404;2023-11-19T00:48:07;9.95;;;1.65;;
71973;SDS011;59840;52.122;5.404;2023-11-19T00:50:34;16.08;;;2.00;;
71973;SDS011;59840;52.122;5.404;2023-11-19T00:53:03;8.23;;;1.93;;
71973;SDS011;59840;52.122;5.404;2023-11-19T00:55:30;8.45;;;1.98;;
71973;SDS011;59840;52.122;5.404;2023-11-19T00:57:57;9.35;;;1.85;;
71973;SDS011;59840;52.122;5.404;2023-11-19T01:00:24;11.82;;;1.48;;
71973;SDS011;59840;52.122;5.404;2023-11-19T01:02:53;13.30;;;1.52;;
71973;SDS011;59840;52.122;5.404;2023-11-19T01:05:20;12.70;;;1.80;;
71973;SDS011;59840;52.122;5.404;2023-11-19T01:07:49;8.73;;;1.90;;
71973;SDS011;59840;52.122;5.404;2023-11-19T01:10:16;15.02;;;1.80;;
71973;SDS011;59840;52.122;5.404;2023-11-19T01:12:43;10.70;;;1.40;;
71973;SDS011;59840;52.122;5.404;2023-11-19T01:15:10;14.10;;;1.90;;
71973;SDS011;59840;52.122;5.404;2023-11-19T01:17:37;20.13;;;1.83;;
71973;SDS011;59840;52.122;5.404;2023-11-19T01:20:04;19.15;;;1.80;;
71973;SDS011;59840;52.122;5.404;2023-11-19T01:22:32;14.65;;;2.05;;
71973;SDS011;59840;52.122;5.404;2023-11-19T01:24:59;13.02;;;1.77;;
71973;SDS011;59840;52.122;5.404;2023-11-19T01:27:26;10.13;;;1.70;;
71973;SDS011;59840;52.122;5.404;2023-11-19T01:29:53;15.23;;;2.60;;
71973;SDS011;59840;52.122;5.404;2023-11-19T01:32:19;13.60;;;1.80;;
71973;SDS011;59840;52.122;5.404;2023-11-19T01:34:46;13.88;;;1.65;;
71973;SDS011;59840;52.122;5.404;2023-11-19T01:37:12;18.67;;;2.08;;
71973;SDS011;59840;52.122;5.404;2023-11-19T01:39:43;20.15;;;2.10;;
71973;SDS011;59840;52.122;5.404;2023-11-19T01:42:10;15.27;;;2.00;;
71973;SDS011;59840;52.122;5.404;2023-11-19T01:44:38;13.50;;;2.10;;
71973;SDS011;59840;52.122;5.404;2023-11-19T01:47:05;15.38;;;1.40;;
71973;SDS011;59840;52.122;5.404;2023-11-19T01:49:32;12.40;;;1.85;;
71973;SDS011;59840;52.122;5.404;2023-11-19T01:51:59;20.17;;;1.75;;
71973;SDS011;59840;52.122;5.404;2023-11-19T01:54:26;20.10;;;2.43;;
71973;SDS011;59840;52.122;5.404;2023-11-19T01:56:54;17.95;;;1.92;;
71973;SDS011;59840;52.122;5.404;2023-11-19T01:59:23;16.67;;;2.05;;
71973;SDS011;59840;52.122;5.404;2023-11-19T02:01:53;21.75;;;2.67;;
71973;SDS011;59840;52.122;5.404;2023-11-19T02:04:24;18.08;;;2.00;;
71973;SDS011;59840;52.122;5.404;2023-11-19T02:06:51;18.10;;;2.00;;
71973;SDS011;59840;52.122;5.404;2023-11-19T02:09:22;12.82;;;1.98;;
71973;SDS011;59840;52.122;5.404;2023-11-19T02:11:49;18.52;;;2.22;;
71973;SDS011;59840;52.122;5.404;2023-11-19T02:14:17;17.95;;;2.05;;
71973;SDS011;59840;52.122;5.404;2023-11-19T02:16:44;15.85;;;2.15;;
71973;SDS011;59840;52.122;5.404;2023-11-19T02:19:10;18.83;;;1.70;;
71973;SDS011;59840;52.122;5.404;2023-11-19T02:21:37;15.52;;;2.10;;
71973;SDS011;59840;52.122;5.404;2023-11-19T02:24:05;15.35;;;1.88;;
71973;SDS011;59840;52.122;5.404;2023-11-19T02:26:46;16.17;;;2.00;;
71973;SDS011;59840;52.122;5.404;2023-11-19T02:29:17;19.42;;;1.77;;
71973;SDS011;59840;52.122;5.404;2023-11-19T02:31:44;22.57;;;2.30;;
71973;SDS011;59840;52.122;5.404;2023-11-19T02:34:10;19.33;;;2.22;;
71973;SDS011;59840;52.122;5.404;2023-11-19T02:36:39;15.70;;;1.75;;
71973;SDS011;59840;52.122;5.404;2023-11-19T02:39:07;19.05;;;2.47;;
71973;SDS011;59840;52.122;5.404;2023-11-19T02:41:38;20.65;;;2.75;;
71973;SDS011;59840;52.122;5.404;2023-11-19T02:44:06;23.03;;;2.30;;
71973;SDS011;59840;52.122;5.404;2023-11-19T02:46:33;25.42;;;2.58;;
71973;SDS011;59840;52.122;5.404;2023-11-19T02:49:00;12.77;;;2.08;;
71973;SDS011;59840;52.122;5.404;2023-11-19T02:51:26;18.67;;;2.35;;
71973;SDS011;59840;52.122;5.404;2023-11-19T02:53:54;26.85;;;2.15;;
71973;SDS011;59840;52.122;5.404;2023-11-19T02:56:20;20.07;;;2.03;;
71973;SDS011;59840;52.122;5.404;2023-11-19T02:58:52;27.67;;;2.30;;
71973;SDS011;59840;52.122;5.404;2023-11-19T03:01:23;19.17;;;1.77;;
71973;SDS011;59840;52.122;5.404;2023-11-19T03:03:57;23.95;;;2.80;;
71973;SDS011;59840;52.122;5.404;2023-11-19T03:06:24;16.90;;;2.10;;
71973;SDS011;59840;52.122;5.404;2023-11-19T03:08:51;18.90;;;2.23;;
71973;SDS011;59840;52.122;5.404;2023-11-19T03:11:18;27.92;;;4.07;;
71973;SDS011;59840;52.122;5.404;2023-11-19T03:13:44;24.08;;;3.15;;
71973;SDS011;59840;52.122;5.404;2023-11-19T03:16:11;19.90;;;2.28;;
71973;SDS011;59840;52.122;5.404;2023-11-19T03:18:38;20.80;;;2.85;;
71973;SDS011;59840;52.122;5.404;2023-11-19T03:21:06;22.27;;;2.20;;
71973;SDS011;59840;52.122;5.404;2023-11-19T03:23:34;20.45;;;2.47;;
71973;SDS011;59840;52.122;5.404;2023-11-19T03:26:01;22.50;;;2.72;;
71973;SDS011;59840;52.122;5.404;2023-11-19T03:28:32;21.45;;;2.47;;
71973;SDS011;59840;52.122;5.404;2023-11-19T03:30:59;19.58;;;2.80;;
71973;SDS011;59840;52.122;5.404;2023-11-19T03:33:26;23.00;;;2.50;;
71973;SDS011;59840;52.122;5.404;2023-11-19T03:35:54;16.42;;;1.88;;
71973;SDS011;59840;52.122;5.404;2023-11-19T03:38:23;29.90;;;2.97;;
71973;SDS011;59840;52.122;5.404;2023-11-19T03:40:51;19.23;;;2.80;;
71973;SDS011;59840;52.122;5.404;2023-11-19T03:43:18;24.42;;;2.60;;
71973;SDS011;59840;52.122;5.404;2023-11-19T03:45:45;20.07;;;2.27;;
71973;SDS011;59840;52.122;5.404;2023-11-19T03:48:13;18.15;;;2.38;;
71973;SDS011;59840;52.122;5.404;2023-11-19T03:50:42;28.77;;;2.72;;
71973;SDS011;59840;52.122;5.404;2023-11-19T03:53:09;23.15;;;2.50;;
71973;SDS011;59840;52.122;5.404;2023-11-19T03:55:36;23.98;;;2.22;;
71973;SDS011;59840;52.122;5.404;2023-11-19T03:58:02;18.07;;;2.23;;
71973;SDS011;59840;52.122;5.404;2023-11-19T04:00:29;20.52;;;2.60;;
71973;SDS011;59840;52.122;5.404;2023-11-19T04:02:55;20.42;;;2.40;;
71973;SDS011;59840;52.122;5.404;2023-11-19T04:05:22;18.67;;;2.00;;
71973;SDS011;59840;52.122;5.404;2023-11-19T04:07:48;17.60;;;2.13;;
71973;SDS011;59840;52.122;5.404;2023-11-19T04:10:15;26.03;;;3.13;;
71973;SDS011;59840;52.122;5.404;2023-11-19T04:12:43;18.58;;;2.28;;
71973;SDS011;59840;52.122;5.404;2023-11-19T04:15:10;29.40;;;2.58;;
71973;SDS011;59840;52.122;5.404;2023-11-19T04:17:37;22.95;;;2.63;;
71973;SDS011;59840;52.122;5.404;2023-11-19T04:20:05;30.58;;;2.90;;
71973;SDS011;59840;52.122;5.404;2023-11-19T04:22:32;27.07;;;2.40;;
71973;SDS011;59840;52.122;5.404;2023-11-19T04:24:59;26.80;;;2.83;;
71973;SDS011;59840;52.122;5.404;2023-11-19T04:27:25;23.60;;;3.17;;
71973;SDS011;59840;52.122;5.404;2023-11-19T04:29:52;21.55;;;1.92;;
71973;SDS011;59840;52.122;5.404;2023-11-19T04:32:20;24.02;;;2.28;;
71973;SDS011;59840;52.122;5.404;2023-11-19T04:34:47;25.97;;;3.00;;
71973;SDS011;59840;52.122;5.404;2023-11-19T04:37:13;27.92;;;3.00;;
71973;SDS011;59840;52.122;5.404;2023-11-19T04:39:40;19.08;;;2.05;;
71973;SDS011;59840;52.122;5.404;2023-11-19T04:42:07;25.77;;;2.28;;
71973;SDS011;59840;52.122;5.404;2023-11-19T04:44:33;30.20;;;2.72;;
71973;SDS011;59840;52.122;5.404;2023-11-19T04:47:00;20.80;;;2.50;;
71973;SDS011;59840;52.122;5.404;2023-11-19T04:49:27;26.27;;;2.83;;
71973;SDS011;59840;52.122;5.404;2023-11-19T04:51:54;21.52;;;2.83;;
71973;SDS011;59840;52.122;5.404;2023-11-19T04:54:21;25.13;;;2.78;;
71973;SDS011;59840;52.122;5.404;2023-11-19T04:56:47;24.20;;;2.25;;
71973;SDS011;59840;52.122;5.404;2023-11-19T04:59:15;27.17;;;2.20;;
71973;SDS011;59840;52.122;5.404;2023-11-19T05:01:45;23.98;;;2.38;;
71973;SDS011;59840;52.122;5.404;2023-11-19T05:04:13;21.45;;;2.08;;
71973;SDS011;59840;52.122;5.404;2023-11-19T05:06:40;23.42;;;2.47;;
71973;SDS011;59840;52.122;5.404;2023-11-19T05:09:07;31.08;;;2.42;;
71973;SDS011;59840;52.122;5.404;2023-11-19T05:11:34;22.27;;;2.73;;
71973;SDS011;59840;52.122;5.404;2023-11-19T05:14:04;23.50;;;2.97;;
71973;SDS011;59840;52.122;5.404;2023-11-19T05:16:31;18.15;;;2.20;;
71973;SDS011;59840;52.122;5.404;2023-11-19T05:18:58;21.63;;;2.33;;
71973;SDS011;59840;52.122;5.404;2023-11-19T05:21:25;28.13;;;2.70;;
71973;SDS011;59840;52.122;5.404;2023-11-19T05:23:51;22.93;;;2.57;;
71973;SDS011;59840;52.122;5.404;2023-11-19T05:26:21;26.90;;;2.90;;
71973;SDS011;59840;52.122;5.404;2023-11-19T05:28:50;25.90;;;2.88;;
71973;SDS011;59840;52.122;5.404;2023-11-19T05:31:17;20.17;;;2.38;;
71973;SDS011;59840;52.122;5.404;2023-11-19T05:33:44;27.00;;;2.42;;
71973;SDS011;59840;52.122;5.404;2023-11-19T05:36:11;20.33;;;2.33;;
71973;SDS011;59840;52.122;5.404;2023-11-19T05:38:39;24.33;;;2.15;;
71973;SDS011;59840;52.122;5.404;2023-11-19T05:41:06;31.67;;;3.15;;
71973;SDS011;59840;52.122;5.404;2023-11-19T05:43:32;16.52;;;1.77;;
71973;SDS011;59840;52.122;5.404;2023-11-19T05:45:59;22.02;;;2.22;;
71973;SDS011;59840;52.122;5.404;2023-11-19T05:48:27;28.03;;;2.70;;
71973;SDS011;59840;52.122;5.404;2023-11-19T05:50:55;26.33;;;2.55;;
71973;SDS011;59840;52.122;5.404;2023-11-19T05:53:22;19.90;;;2.63;;
71973;SDS011;59840;52.122;5.404;2023-11-19T05:55:49;24.83;;;2.70;;
71973;SDS011;59840;52.122;5.404;2023-11-19T05:58:24;27.85;;;3.53;;
71973;SDS011;59840;52.122;5.404;2023-11-19T06:00:52;23.90;;;2.47;;
71973;SDS011;59840;52.122;5.404;2023-11-19T06:03:19;23.55;;;2.92;;
71973;SDS011;59840;52.122;5.404;2023-11-19T06:05:48;27.48;;;2.60;;
71973;SDS011;59840;52.122;5.404;2023-11-19T06:08:15;21.08;;;2.30;;
71973;SDS011;59840;52.122;5.404;2023-11-19T06:10:43;18.60;;;3.00;;
71973;SDS011;59840;52.122;5.404;2023-11-19T06:13:13;23.73;;;2.17;;
71973;SDS011;59840;52.122;5.404;2023-11-19T06:15:42;21.80;;;2.33;;
71973;SDS011;59840;52.122;5.404;2023-11-19T06:18:09;22.70;;;1.83;;
71973;SDS011;59840;52.122;5.404;2023-11-19T06:20:38;31.88;;;2.47;;
71973;SDS011;59840;52.122;5.404;2023-11-19T06:23:09;20.67;;;2.00;;
71973;SDS011;59840;52.122;5.404;2023-11-19T06:25:36;24.40;;;3.10;;
71973;SDS011;59840;52.122;5.404;2023-11-19T06:28:02;19.52;;;1.88;;
71973;SDS011;59840;52.122;5.404;2023-11-19T06:30:29;29.60;;;2.72;;
71973;SDS011;59840;52.122;5.404;2023-11-19T06:32:59;22.38;;;2.53;;
71973;SDS011;59840;52.122;5.404;2023-11-19T06:35:27;28.50;;;2.85;;
71973;SDS011;59840;52.122;5.404;2023-11-19T06:37:56;25.33;;;3.00;;
71973;SDS011;59840;52.122;5.404;2023-11-19T06:40:22;24.75;;;2.35;;
71973;SDS011;59840;52.122;5.404;2023-11-19T06:42:49;24.58;;;3.85;;
71973;SDS011;59840;52.122;5.404;2023-11-19T06:45:18;19.45;;;2.72;;
71973;SDS011;59840;52.122;5.404;2023-11-19T06:47:45;29.60;;;2.67;;
71973;SDS011;59840;52.122;5.404;2023-11-19T06:52:47;27.08;;;2.67;;
71973;SDS011;59840;52.122;5.404;2023-11-19T06:55:14;24.05;;;2.13;;
71973;SDS011;59840;52.122;5.404;2023-11-19T06:57:40;19.23;;;2.60;;
71973;SDS011;59840;52.122;5.404;2023-11-19T07:00:07;25.23;;;2.35;;
71973;SDS011;59840;52.122;5.404;2023-11-19T07:02:35;21.73;;;1.77;;
71973;SDS011;59840;52.122;5.404;2023-11-19T07:05:02;20.42;;;2.42;;
71973;SDS011;59840;52.122;5.404;2023-11-19T07:07:31;27.20;;;2.53;;
71973;SDS011;59840;52.122;5.404;2023-11-19T07:09:58;25.08;;;2.67;;
71973;SDS011;59840;52.122;5.404;2023-11-19T07:12:25;26.13;;;2.28;;
71973;SDS011;59840;52.122;5.404;2023-11-19T07:14:54;24.67;;;2.63;;
71973;SDS011;59840;52.122;5.404;2023-11-19T07:17:21;25.90;;;2.47;;
71973;SDS011;59840;52.122;5.404;2023-11-19T07:19:49;16.17;;;1.98;;
71973;SDS011;59840;52.122;5.404;2023-11-19T07:22:16;28.15;;;2.20;;
71973;SDS011;59840;52.122;5.404;2023-11-19T07:24:43;17.48;;;2.30;;
71973;SDS011;59840;52.122;5.404;2023-11-19T07:27:10;23.37;;;2.20;;
71973;SDS011;59840;52.122;5.404;2023-11-19T07:29:36;24.40;;;3.00;;
71973;SDS011;59840;52.122;5.404;2023-11-19T07:32:04;24.45;;;2.60;;
71973;SDS011;59840;52.122;5.404;2023-11-19T07:34:31;17.52;;;2.13;;
71973;SDS011;59840;52.122;5.404;2023-11-19T07:36:58;23.73;;;3.08;;
71973;SDS011;59840;52.122;5.404;2023-11-19T07:39:28;31.20;;;2.87;;
71973;SDS011;59840;52.122;5.404;2023-11-19T07:41:55;22.20;;;2.92;;
71973;SDS011;59840;52.122;5.404;2023-11-19T07:44:22;17.65;;;2.20;;
71973;SDS011;59840;52.122;5.404;2023-11-19T07:46:48;21.90;;;1.95;;
71973;SDS011;59840;52.122;5.404;2023-11-19T07:49:15;18.48;;;1.65;;
71973;SDS011;59840;52.122;5.404;2023-11-19T07:51:42;22.07;;;2.27;;
71973;SDS011;59840;52.122;5.404;2023-11-19T07:54:08;25.13;;;3.10;;
71973;SDS011;59840;52.122;5.404;2023-11-19T07:56:35;26.35;;;2.97;;
71973;SDS011;59840;52.122;5.404;2023-11-19T07:59:02;28.98;;;2.78;;
71973;SDS011;59840;52.122;5.404;2023-11-19T08:01:29;15.98;;;1.73;;
71973;SDS011;59840;52.122;5.404;2023-11-19T08:03:55;21.07;;;2.73;;
71973;SDS011;59840;52.122;5.404;2023-11-19T08:06:25;25.30;;;2.08;;
71973;SDS011;59840;52.122;5.404;2023-11-19T08:08:52;21.40;;;2.47;;
71973;SDS011;59840;52.122;5.404;2023-11-19T08:11:18;18.20;;;2.58;;
71973;SDS011;59840;52.122;5.404;2023-11-19T08:13:48;23.67;;;2.28;;
71973;SDS011;59840;52.122;5.404;2023-11-19T08:16:14;24.03;;;3.27;;
71973;SDS011;59840;52.122;5.404;2023-11-19T08:18:42;25.00;;;2.30;;
71973;SDS011;59840;52.122;5.404;2023-11-19T08:21:09;24.33;;;2.92;;
71973;SDS011;59840;52.122;5.404;2023-11-19T08:23:36;24.70;;;2.55;;
71973;SDS011;59840;52.122;5.404;2023-11-19T08:26:04;22.90;;;2.05;;
71973;SDS011;59840;52.122;5.404;2023-11-19T08:28:32;28.23;;;2.70;;
71973;SDS011;59840;52.122;5.404;2023-11-19T08:31:00;20.27;;;2.72;;
71973;SDS011;59840;52.122;5.404;2023-11-19T08:33:27;22.40;;;2.10;;
71973;SDS011;59840;52.122;5.404;2023-11-19T08:35:54;27.58;;;3.25;;
71973;SDS011;59840;52.122;5.404;2023-11-19T08:38:21;23.63;;;2.60;;
71973;SDS011;59840;52.122;5.404;2023-11-19T08:40:50;24.03;;;3.13;;
71973;SDS011;59840;52.122;5.404;2023-11-19T08:43:18;23.95;;;3.05;;
71973;SDS011;59840;52.122;5.404;2023-11-19T08:45:44;20.33;;;2.33;;
71973;SDS011;59840;52.122;5.404;2023-11-19T08:48:11;19.65;;;1.92;;
71973;SDS011;59840;52.122;5.404;2023-11-19T08:50:38;18.73;;;1.83;;
71973;SDS011;59840;52.122;5.404;2023-11-19T08:53:04;20.33;;;2.40;;
71973;SDS011;59840;52.122;5.404;2023-11-19T08:55:33;18.88;;;2.20;;
71973;SDS011;59840;52.122;5.404;2023-11-19T08:58:00;20.50;;;2.70;;
71973;SDS011;59840;52.122;5.404;2023-11-19T09:00:27;23.20;;;2.00;;
71973;SDS011;59840;52.122;5.404;2023-11-19T09:02:53;29.05;;;2.75;;
71973;SDS011;59840;52.122;5.404;2023-11-19T09:05:20;22.73;;;2.20;;
71973;SDS011;59840;52.122;5.404;2023-11-19T09:07:47;25.70;;;2.75;;
71973;SDS011;59840;52.122;5.404;2023-11-19T09:10:14;15.90;;;2.25;;
71973;SDS011;59840;52.122;5.404;2023-11-19T09:12:41;14.02;;;2.08;;
71973;SDS011;59840;52.122;5.404;2023-11-19T09:15:08;17.58;;;2.10;;
71973;SDS011;59840;52.122;5.404;2023-11-19T09:17:37;17.23;;;2.37;;
71973;SDS011;59840;52.122;5.404;2023-11-19T09:20:03;18.50;;;2.90;;
71973;SDS011;59840;52.122;5.404;2023-11-19T09:22:31;20.10;;;2.40;;
71973;SDS011;59840;52.122;5.404;2023-11-19T09:24:58;20.15;;;2.53;;
71973;SDS011;59840;52.122;5.404;2023-11-19T09:27:26;21.40;;;3.28;;
71973;SDS011;59840;52.122;5.404;2023-11-19T09:29:53;26.10;;;2.70;;
71973;SDS011;59840;52.122;5.404;2023-11-19T09:32:24;19.40;;;3.33;;
71973;SDS011;59840;52.122;5.404;2023-11-19T09:34:51;15.75;;;1.83;;
71973;SDS011;59840;52.122;5.404;2023-11-19T09:37:18;17.42;;;2.17;;
71973;SDS011;59840;52.122;5.404;2023-11-19T09:39:47;19.92;;;2.40;;
71973;SDS011;59840;52.122;5.404;2023-11-19T09:42:14;27.37;;;2.90;;
71973;SDS011;59840;52.122;5.404;2023-11-19T09:44:42;15.98;;;2.25;;
71973;SDS011;59840;52.122;5.404;2023-11-19T09:47:10;17.40;;;2.72;;
71973;SDS011;59840;52.122;5.404;2023-11-19T09:49:38;14.73;;;1.98;;
71973;SDS011;59840;52.122;5.404;2023-11-19T09:52:05;24.20;;;2.63;;
71973;SDS011;59840;52.122;5.404;2023-11-19T09:54:32;14.07;;;2.40;;
71973;SDS011;59840;52.122;5.404;2023-11-19T09:56:59;18.70;;;2.70;;
71973;SDS011;59840;52.122;5.404;2023-11-19T09:59:30;23.10;;;2.75;;
71973;SDS011;59840;52.122;5.404;2023-11-19T10:01:57;17.27;;;2.03;;
71973;SDS011;59840;52.122;5.404;2023-11-19T10:04:24;16.40;;;2.20;;
71973;SDS011;59840;52.122;5.404;2023-11-19T10:06:56;20.93;;;2.70;;
71973;SDS011;59840;52.122;5.404;2023-11-19T10:09:22;18.70;;;2.78;;
71973;SDS011;59840;52.122;5.404;2023-11-19T10:11:49;12.63;;;2.65;;
71973;SDS011;59840;52.122;5.404;2023-11-19T10:14:16;19.55;;;2.13;;
71973;SDS011;59840;52.122;5.404;2023-11-19T10:16:45;20.40;;;2.13;;
71973;SDS011;59840;52.122;5.404;2023-11-19T10:19:18;18.90;;;2.23;;
71973;SDS011;59840;52.122;5.404;2023-11-19T10:21:46;14.60;;;1.83;;
71973;SDS011;59840;52.122;5.404;2023-11-19T10:24:13;18.10;;;1.95;;
71973;SDS011;59840;52.122;5.404;2023-11-19T10:26:56;19.88;;;2.60;;
71973;SDS011;59840;52.122;5.404;2023-11-19T10:29:23;10.45;;;2.25;;
71973;SDS011;59840;52.122;5.404;2023-11-19T10:31:56;21.40;;;2.83;;
71973;SDS011;59840;52.122;5.404;2023-11-19T10:34:44;19.33;;;2.05;;
71973;SDS011;59840;52.122;5.404;2023-11-19T10:37:29;26.42;;;2.88;;
71973;SDS011;59840;52.122;5.404;2023-11-19T10:40:01;17.52;;;2.10;;
71973;SDS011;59840;52.122;5.404;2023-11-19T10:42:31;13.88;;;1.77;;
71973;SDS011;59840;52.122;5.404;2023-11-19T10:44:58;14.83;;;2.20;;
71973;SDS011;59840;52.122;5.404;2023-11-19T10:47:24;13.63;;;2.22;;
71973;SDS011;59840;52.122;5.404;2023-11-19T10:49:54;19.25;;;2.42;;
71973;SDS011;59840;52.122;5.404;2023-11-19T10:52:22;20.27;;;1.67;;
71973;SDS011;59840;52.122;5.404;2023-11-19T10:54:50;22.02;;;2.08;;
71973;SDS011;59840;52.122;5.404;2023-11-19T10:57:21;26.23;;;2.53;;
71973;SDS011;59840;52.122;5.404;2023-11-19T10:59:52;13.85;;;1.90;;
71973;SDS011;59840;52.122;5.404;2023-11-19T11:02:22;18.35;;;2.20;;
71973;SDS011;59840;52.122;5.404;2023-11-19T11:04:51;22.58;;;2.00;;
71973;SDS011;59840;52.122;5.404;2023-11-19T11:07:19;21.75;;;2.30;;
71973;SDS011;59840;52.122;5.404;2023-11-19T11:10:01;22.73;;;2.73;;
71973;SDS011;59840;52.122;5.404;2023-11-19T11:12:32;15.40;;;2.15;;
71973;SDS011;59840;52.122;5.404;2023-11-19T11:15:04;22.23;;;2.15;;
71973;SDS011;59840;52.122;5.404;2023-11-19T11:17:32;16.83;;;2.03;;
71973;SDS011;59840;52.122;5.404;2023-11-19T11:20:00;15.75;;;1.88;;
71973;SDS011;59840;52.122;5.404;2023-11-19T11:22:29;17.77;;;1.97;;
71973;SDS011;59840;52.122;5.404;2023-11-19T11:36:13;19.70;;;3.10;;
71973;SDS011;59840;52.122;5.404;2023-11-19T11:38:47;16.65;;;2.40;;
71973;SDS011;59840;52.122;5.404;2023-11-19T11:41:15;17.17;;;2.78;;
71973;SDS011;59840;52.122;5.404;2023-11-19T11:43:46;24.67;;;2.65;;
71973;SDS011;59840;52.122;5.404;2023-11-19T11:49:04;20.07;;;2.90;;
71973;SDS011;59840;52.122;5.404;2023-11-19T11:54:11;16.42;;;1.80;;
71973;SDS011;59840;52.122;5.404;2023-11-19T11:59:47;15.18;;;2.03;;
71973;SDS011;59840;52.122;5.404;2023-11-19T12:02:15;18.57;;;2.50;;
71973;SDS011;59840;52.122;5.404;2023-11-19T12:04:48;20.55;;;2.40;;
71973;SDS011;59840;52.122;5.404;2023-11-19T12:07:18;20.13;;;2.33;;
71973;SDS011;59840;52.122;5.404;2023-11-19T12:09:53;18.38;;;2.05;;
71973;SDS011;59840;52.122;5.404;2023-11-19T12:12:34;16.85;;;1.85;;
71973;SDS011;59840;52.122;5.404;2023-11-19T12:15:03;17.43;;;1.90;;
71973;SDS011;59840;52.122;5.404;2023-11-19T12:17:37;13.75;;;1.83;;
71973;SDS011;59840;52.122;5.404;2023-11-19T12:20:10;20.67;;;2.13;;
71973;SDS011;59840;52.122;5.404;2023-11-19T12:22:38;13.30;;;1.58;;
71973;SDS011;59840;52.122;5.404;2023-11-19T12:25:06;13.65;;;1.85;;
71973;SDS011;59840;52.122;5.404;2023-11-19T12:27:35;9.87;;;1.80;;
71973;SDS011;59840;52.122;5.404;2023-11-19T12:30:02;9.35;;;1.50;;
71973;SDS011;59840;52.122;5.404;2023-11-19T12:32:40;12.32;;;1.65;;
71973;SDS011;59840;52.122;5.404;2023-11-19T12:35:08;14.63;;;1.75;;
71973;SDS011;59840;52.122;5.404;2023-11-19T12:37:42;12.18;;;1.50;;
71973;SDS011;59840;52.122;5.404;2023-11-19T12:40:11;16.67;;;1.23;;
71973;SDS011;59840;52.122;5.404;2023-11-19T12:42:39;14.52;;;1.67;;
71973;SDS011;59840;52.122;5.404;2023-11-19T12:45:06;14.52;;;1.98;;
71973;SDS011;59840;52.122;5.404;2023-11-19T12:47:32;17.33;;;1.67;;
71973;SDS011;59840;52.122;5.404;2023-11-19T12:49:59;17.33;;;1.55;;
71973;SDS011;59840;52.122;5.404;2023-11-19T12:52:26;18.73;;;2.87;;
71973;SDS011;59840;52.122;5.404;2023-11-19T12:54:52;12.07;;;2.00;;
71973;SDS011;59840;52.122;5.404;2023-11-19T12:57:19;15.45;;;1.50;;
71973;SDS011;59840;52.122;5.404;2023-11-19T12:59:55;14.88;;;1.75;;
71973;SDS011;59840;52.122;5.404;2023-11-19T13:02:22;13.95;;;1.63;;
71973;SDS011;59840;52.122;5.404;2023-11-19T13:04:49;14.57;;;1.33;;
71973;SDS011;59840;52.122;5.404;2023-11-19T13:07:20;15.10;;;1.60;;
71973;SDS011;59840;52.122;5.404;2023-11-19T13:09:47;15.55;;;1.63;;
71973;SDS011;59840;52.122;5.404;2023-11-19T13:12:14;15.10;;;1.45;;
71973;SDS011;59840;52.122;5.404;2023-11-19T13:14:42;18.17;;;2.28;;
71973;SDS011;59840;52.122;5.404;2023-11-19T13:17:13;12.80;;;1.70;;
71973;SDS011;59840;52.122;5.404;2023-11-19T13:19:40;19.42;;;1.77;;
71973;SDS011;59840;52.122;5.404;2023-11-19T13:22:07;14.10;;;1.70;;
71973;SDS011;59840;52.122;5.404;2023-11-19T13:24:34;16.73;;;2.03;;
71973;SDS011;59840;52.122;5.404;2023-11-19T13:27:01;18.70;;;2.47;;
71973;SDS011;59840;52.122;5.404;2023-11-19T13:29:28;16.13;;;2.57;;
71973;SDS011;59840;52.122;5.404;2023-11-19T13:31:57;17.55;;;2.70;;
71973;SDS011;59840;52.122;5.404;2023-11-19T13:34:24;18.33;;;1.88;;
71973;SDS011;59840;52.122;5.404;2023-11-19T13:36:51;17.73;;;1.55;;
71973;SDS011;59840;52.122;5.404;2023-11-19T13:39:17;13.40;;;1.65;;
71973;SDS011;59840;52.122;5.404;2023-11-19T13:41:49;15.03;;;2.17;;
71973;SDS011;59840;52.122;5.404;2023-11-19T13:44:16;15.32;;;1.95;;
71973;SDS011;59840;52.122;5.404;2023-11-19T13:46:44;18.55;;;2.03;;
71973;SDS011;59840;52.122;5.404;2023-11-19T13:49:12;15.10;;;1.67;;
71973;SDS011;59840;52.122;5.404;2023-11-19T13:51:38;16.83;;;2.72;;
71973;SDS011;59840;52.122;5.404;2023-11-19T13:54:05;12.97;;;1.70;;
71973;SDS011;59840;52.122;5.404;2023-11-19T13:56:32;17.75;;;2.22;;
71973;SDS011;59840;52.122;5.404;2023-11-19T13:58:58;20.27;;;1.73;;
71973;SDS011;59840;52.122;5.404;2023-11-19T14:01:25;15.75;;;1.77;;
71973;SDS011;59840;52.122;5.404;2023-11-19T14:03:52;13.07;;;1.73;;
71973;SDS011;59840;52.122;5.404;2023-11-19T14:06:19;18.50;;;1.73;;
71973;SDS011;59840;52.122;5.404;2023-11-19T14:08:46;12.35;;;1.85;;
71973;SDS011;59840;52.122;5.404;2023-11-19T14:11:13;15.35;;;1.60;;
71973;SDS011;59840;52.122;5.404;2023-11-19T14:13:40;13.82;;;2.10;;
71973;SDS011;59840;52.122;5.404;2023-11-19T14:16:06;18.08;;;1.90;;
71973;SDS011;59840;52.122;5.404;2023-11-19T14:18:35;16.33;;;1.43;;
71973;SDS011;59840;52.122;5.404;2023-11-19T14:21:02;10.75;;;1.45;;
71973;SDS011;59840;52.122;5.404;2023-11-19T14:23:29;11.52;;;1.13;;
71973;SDS011;59840;52.122;5.404;2023-11-19T14:25:56;15.88;;;1.83;;
71973;SDS011;59840;52.122;5.404;2023-11-19T14:28:22;14.20;;;1.55;;
71973;SDS011;59840;52.122;5.404;2023-11-19T14:30:49;16.00;;;1.40;;
71973;SDS011;59840;52.122;5.404;2023-11-19T14:33:20;12.52;;;1.25;;
71973;SDS011;59840;52.122;5.404;2023-11-19T14:35:46;17.83;;;1.55;;
71973;SDS011;59840;52.122;5.404;2023-11-19T14:38:14;14.98;;;1.65;;
71973;SDS011;59840;52.122;5.404;2023-11-19T14:40:41;12.13;;;1.58;;
71973;SDS011;59840;52.122;5.404;2023-11-19T14:43:09;17.90;;;1.83;;
71973;SDS011;59840;52.122;5.404;2023-11-19T14:45:38;18.67;;;1.95;;
71973;SDS011;59840;52.122;5.404;2023-11-19T14:48:15;19.60;;;1.63;;
71973;SDS011;59840;52.122;5.404;2023-11-19T14:50:41;16.05;;;2.63;;
71973;SDS011;59840;52.122;5.404;2023-11-19T14:53:08;10.30;;;1.00;;
71973;SDS011;59840;52.122;5.404;2023-11-19T14:55:34;12.03;;;1.97;;
71973;SDS011;59840;52.122;5.404;2023-11-19T14:58:01;16.10;;;1.45;;
71973;SDS011;59840;52.122;5.404;2023-11-19T15:00:35;12.68;;;2.45;;
71973;SDS011;59840;52.122;5.404;2023-11-19T15:03:02;18.30;;;2.35;;